sensor_id;sensor_type;location;lat;lon;timestamp;temperature;humidity
20081;DHT22;10200;49.232;9.222;2022-10-19T00:00:49;15.50;99.90
20081;DHT22;10200;49.232;9.222;2022-10-19T00:03:15;15.50;99.90
20081;DHT22;10200;49.232;9.222;2022-10-19T00:05:41;15.50;99.90
20081;DHT22;10200;49.232;9.222;2022-10-19T00:08:07;15.40;99.90
20081;DHT22;10200;49.232;9.222;2022-10-19T00:10:33;15.40;99.90
20081;DHT22;10200;49.232;9.222;2022-10-19T00:12:59;15.40;99.90
20081;DHT22;10200;49.232;9.222;2022-10-19T00:15:24;15.40;99.90
20081;DHT22;10200;49.232;9.222;2022-10-19T00:17:50;15.40;99.90
20081;DHT22;10200;49.232;9.222;2022-10-19T00:20:16;15.40;99.90
20081;DHT22;10200;49.232;9.222;2022-10-19T00:22:41;15.40;99.90
20081;DHT22;10200;49.232;9.222;2022-10-19T00:25:07;15.30;99.90
20081;DHT22;10200;49.232;9.222;2022-10-19T00:27:33;15.30;99.90
20081;DHT22;10200;49.232;9.222;2022-10-19T00:29:58;15.30;99.90
20081;DHT22;10200;49.232;9.222;2022-10-19T00:32:24;15.40;99.90
20081;DHT22;10200;49.232;9.222;2022-10-19T00:34:49;15.40;99.90
20081;DHT22;10200;49.232;9.222;2022-10-19T00:37:15;15.40;99.90
20081;DHT22;10200;49.232;9.222;2022-10-19T00:39:41;15.40;99.90
20081;DHT22;10200;49.232;9.222;2022-10-19T00:42:10;15.40;99.90
20081;DHT22;10200;49.232;9.222;2022-10-19T00:47:04;15.40;99.90
20081;DHT22;10200;49.232;9.222;2022-10-19T00:49:38;15.40;99.90
20081;DHT22;10200;49.232;9.222;2022-10-19T00:52:07;15.40;99.90
20081;DHT22;10200;49.232;9.222;2022-10-19T00:54:36;15.40;99.90
20081;DHT22;10200;49.232;9.222;2022-10-19T00:57:04;15.50;99.90
20081;DHT22;10200;49.232;9.222;2022-10-19T00:59:31;15.50;99.90
20081;DHT22;10200;49.232;9.222;2022-10-19T01:01:58;15.50;99.90
20081;DHT22;10200;49.232;9.222;2022-10-19T01:04:25;15.50;99.90
20081;DHT22;10200;49.232;9.222;2022-10-19T01:06:52;15.50;99.90
20081;DHT22;10200;49.232;9.222;2022-10-19T01:09:18;15.50;99.90
20081;DHT22;10200;49.232;9.222;2022-10-19T01:16:57;15.60;99.90
20081;DHT22;10200;49.232;9.222;2022-10-19T01:28:17;15.60;99.90
20081;DHT22;10200;49.232;9.222;2022-10-19T01:34:05;15.70;99.90
20081;DHT22;10200;49.232;9.222;2022-10-19T01:45:24;15.60;99.90
20081;DHT22;10200;49.232;9.222;2022-10-19T01:48:04;15.60;99.90
20081;DHT22;10200;49.232;9.222;2022-10-19T01:50:40;15.60;99.90
20081;DHT22;10200;49.232;9.222;2022-10-19T01:53:08;15.60;99.90
20081;DHT22;10200;49.232;9.222;2022-10-19T01:55:38;15.60;99.90
20081;DHT22;10200;49.232;9.222;2022-10-19T01:58:07;15.60;99.90
20081;DHT22;10200;49.232;9.222;2022-10-19T02:00:37;15.50;99.90
20081;DHT22;10200;49.232;9.222;2022-10-19T02:03:05;15.50;99.90
20081;DHT22;10200;49.232;9.222;2022-10-19T02:05:32;15.40;99.90
20081;DHT22;10200;49.232;9.222;2022-10-19T02:08:12;15.40;99.90
20081;DHT22;10200;49.232;9.222;2022-10-19T02:10:40;15.30;99.90
20081;DHT22;10200;49.232;9.222;2022-10-19T02:13:07;15.30;99.90
20081;DHT22;10200;49.232;9.222;2022-10-19T02:15:36;15.30;99.90
20081;DHT22;10200;49.232;9.222;2022-10-19T02:18:04;15.30;99.90
20081;DHT22;10200;49.232;9.222;2022-10-19T02:20:32;15.30;99.90
20081;DHT22;10200;49.232;9.222;2022-10-19T02:22:59;15.30;99.90
20081;DHT22;10200;49.232;9.222;2022-10-19T02:25:25;15.30;99.90
20081;DHT22;10200;49.232;9.222;2022-10-19T02:27:51;15.30;99.90
20081;DHT22;10200;49.232;9.222;2022-10-19T02:30:18;15.40;99.90
20081;DHT22;10200;49.232;9.222;2022-10-19T02:32:44;15.30;99.90
20081;DHT22;10200;49.232;9.222;2022-10-19T02:35:11;15.30;99.90
20081;DHT22;10200;49.232;9.222;2022-10-19T02:37:39;15.40;99.90
20081;DHT22;10200;49.232;9.222;2022-10-19T02:40:05;15.40;99.90
20081;DHT22;10200;49.232;9.222;2022-10-19T02:42:34;15.50;99.90
20081;DHT22;10200;49.232;9.222;2022-10-19T02:45:26;15.50;99.90
20081;DHT22;10200;49.232;9.222;2022-10-19T02:48:04;15.50;99.90
20081;DHT22;10200;49.232;9.222;2022-10-19T02:50:31;15.50;99.90
20081;DHT22;10200;49.232;9.222;2022-10-19T02:52:57;15.50;99.90
20081;DHT22;10200;49.232;9.222;2022-10-19T02:55:23;15.50;99.90
20081;DHT22;10200;49.232;9.222;2022-10-19T02:57:49;15.50;99.90
20081;DHT22;10200;49.232;9.222;2022-10-19T03:00:14;15.50;99.90
20081;DHT22;10200;49.232;9.222;2022-10-19T03:02:40;15.50;99.90
20081;DHT22;10200;49.232;9.222;2022-10-19T03:05:05;15.50;99.90
20081;DHT22;10200;49.232;9.222;2022-10-19T03:07:31;15.40;99.90
20081;DHT22;10200;49.232;9.222;2022-10-19T03:09:57;15.40;99.90
20081;DHT22;10200;49.232;9.222;2022-10-19T03:12:22;15.30;99.90
20081;DHT22;10200;49.232;9.222;2022-10-19T03:14:48;15.30;99.90
20081;DHT22;10200;49.232;9.222;2022-10-19T03:17:13;15.20;99.90
20081;DHT22;10200;49.232;9.222;2022-10-19T03:19:39;15.20;99.90
20081;DHT22;10200;49.232;9.222;2022-10-19T03:22:05;15.20;99.90
20081;DHT22;10200;49.232;9.222;2022-10-19T03:24:31;15.20;99.90
20081;DHT22;10200;49.232;9.222;2022-10-19T03:26:56;15.20;99.90
20081;DHT22;10200;49.232;9.222;2022-10-19T03:29:22;15.20;99.90
20081;DHT22;10200;49.232;9.222;2022-10-19T03:31:48;15.10;99.90
20081;DHT22;10200;49.232;9.222;2022-10-19T03:34:13;15.10;99.90
20081;DHT22;10200;49.232;9.222;2022-10-19T03:36:39;15.20;99.90
20081;DHT22;10200;49.232;9.222;2022-10-19T03:39:15;15.20;99.90
20081;DHT22;10200;49.232;9.222;2022-10-19T03:41:41;15.20;99.90
20081;DHT22;10200;49.232;9.222;2022-10-19T03:44:08;15.20;99.90
20081;DHT22;10200;49.232;9.222;2022-10-19T03:46:34;15.20;99.90
20081;DHT22;10200;49.232;9.222;2022-10-19T03:49:00;15.20;99.90
20081;DHT22;10200;49.232;9.222;2022-10-19T03:51:28;15.20;99.90
20081;DHT22;10200;49.232;9.222;2022-10-19T03:54:00;15.20;99.90
20081;DHT22;10200;49.232;9.222;2022-10-19T03:56:28;15.20;99.90
20081;DHT22;10200;49.232;9.222;2022-10-19T03:58:55;15.10;99.90
20081;DHT22;10200;49.232;9.222;2022-10-19T04:01:27;15.10;99.90
20081;DHT22;10200;49.232;9.222;2022-10-19T04:03:54;15.10;99.90
20081;DHT22;10200;49.232;9.222;2022-10-19T04:06:26;15.10;99.90
20081;DHT22;10200;49.232;9.222;2022-10-19T04:08:52;15.10;99.90
20081;DHT22;10200;49.232;9.222;2022-10-19T04:11:21;15.10;99.90
20081;DHT22;10200;49.232;9.222;2022-10-19T04:13:48;15.10;99.90
20081;DHT22;10200;49.232;9.222;2022-10-19T04:16:15;15.10;99.90
20081;DHT22;10200;49.232;9.222;2022-10-19T04:18:41;15.10;99.90
20081;DHT22;10200;49.232;9.222;2022-10-19T04:23:49;15.10;99.90
20081;DHT22;10200;49.232;9.222;2022-10-19T04:26:16;15.10;99.90
20081;DHT22;10200;49.232;9.222;2022-10-19T04:28:41;15.10;99.90
20081;DHT22;10200;49.232;9.222;2022-10-19T04:31:07;15.10;99.90
20081;DHT22;10200;49.232;9.222;2022-10-19T04:33:33;15.20;99.90
20081;DHT22;10200;49.232;9.222;2022-10-19T04:36:00;15.20;99.90
20081;DHT22;10200;49.232;9.222;2022-10-19T04:38:26;15.20;99.90
20081;DHT22;10200;49.232;9.222;2022-10-19T04:40:52;15.10;99.90
20081;DHT22;10200;49.232;9.222;2022-10-19T04:43:18;15.20;99.90
20081;DHT22;10200;49.232;9.222;2022-10-19T04:45:43;15.10;99.90
20081;DHT22;10200;49.232;9.222;2022-10-19T04:48:09;15.10;99.90
20081;DHT22;10200;49.232;9.222;2022-10-19T04:50:34;15.10;99.90
20081;DHT22;10200;49.232;9.222;2022-10-19T04:53:00;15.10;99.90
20081;DHT22;10200;49.232;9.222;2022-10-19T04:55:26;15.00;99.90
20081;DHT22;10200;49.232;9.222;2022-10-19T04:57:51;15.00;99.90
20081;DHT22;10200;49.232;9.222;2022-10-19T05:00:17;15.00;99.90
20081;DHT22;10200;49.232;9.222;2022-10-19T05:02:46;15.00;99.90
20081;DHT22;10200;49.232;9.222;2022-10-19T05:05:12;15.00;99.90
20081;DHT22;10200;49.232;9.222;2022-10-19T05:07:38;15.00;99.90
20081;DHT22;10200;49.232;9.222;2022-10-19T05:10:04;15.00;99.90
20081;DHT22;10200;49.232;9.222;2022-10-19T05:12:30;15.10;99.90
20081;DHT22;10200;49.232;9.222;2022-10-19T05:14:55;15.00;99.90
20081;DHT22;10200;49.232;9.222;2022-10-19T05:17:21;15.00;99.90
20081;DHT22;10200;49.232;9.222;2022-10-19T05:19:46;15.00;99.90
20081;DHT22;10200;49.232;9.222;2022-10-19T05:22:12;15.10;99.90
20081;DHT22;10200;49.232;9.222;2022-10-19T05:24:37;15.00;99.90
20081;DHT22;10200;49.232;9.222;2022-10-19T05:27:03;15.00;99.90
20081;DHT22;10200;49.232;9.222;2022-10-19T05:29:29;14.90;99.90
20081;DHT22;10200;49.232;9.222;2022-10-19T05:31:54;14.90;99.90
20081;DHT22;10200;49.232;9.222;2022-10-19T05:34:20;14.90;99.90
20081;DHT22;10200;49.232;9.222;2022-10-19T05:36:45;15.00;99.90
20081;DHT22;10200;49.232;9.222;2022-10-19T05:39:14;14.90;99.90
20081;DHT22;10200;49.232;9.222;2022-10-19T05:41:45;14.90;99.90
20081;DHT22;10200;49.232;9.222;2022-10-19T05:44:16;14.90;99.90
20081;DHT22;10200;49.232;9.222;2022-10-19T05:46:42;14.90;99.90
20081;DHT22;10200;49.232;9.222;2022-10-19T05:49:12;14.90;99.90
20081;DHT22;10200;49.232;9.222;2022-10-19T05:51:39;14.80;99.90
20081;DHT22;10200;49.232;9.222;2022-10-19T05:54:04;14.80;99.90
20081;DHT22;10200;49.232;9.222;2022-10-19T05:56:31;14.80;99.90
20081;DHT22;10200;49.232;9.222;2022-10-19T05:58:59;14.80;99.90
20081;DHT22;10200;49.232;9.222;2022-10-19T06:01:26;14.80;99.90
20081;DHT22;10200;49.232;9.222;2022-10-19T06:03:55;14.80;99.90
20081;DHT22;10200;49.232;9.222;2022-10-19T06:06:21;14.70;99.90
20081;DHT22;10200;49.232;9.222;2022-10-19T06:08:48;14.70;99.90
20081;DHT22;10200;49.232;9.222;2022-10-19T06:11:20;14.70;99.90
20081;DHT22;10200;49.232;9.222;2022-10-19T06:13:47;14.70;99.90
20081;DHT22;10200;49.232;9.222;2022-10-19T06:16:16;14.70;99.90
20081;DHT22;10200;49.232;9.222;2022-10-19T06:18:42;14.70;99.90
20081;DHT22;10200;49.232;9.222;2022-10-19T06:21:13;14.60;99.90
20081;DHT22;10200;49.232;9.222;2022-10-19T06:23:39;14.70;99.90
20081;DHT22;10200;49.232;9.222;2022-10-19T06:26:07;14.60;99.90
20081;DHT22;10200;49.232;9.222;2022-10-19T06:28:34;14.60;99.90
20081;DHT22;10200;49.232;9.222;2022-10-19T06:31:00;14.60;99.90
20081;DHT22;10200;49.232;9.222;2022-10-19T06:33:26;14.50;99.90
20081;DHT22;10200;49.232;9.222;2022-10-19T06:35:52;14.50;99.90
20081;DHT22;10200;49.232;9.222;2022-10-19T06:38:18;14.50;99.90
20081;DHT22;10200;49.232;9.222;2022-10-19T06:40:43;14.50;99.90
20081;DHT22;10200;49.232;9.222;2022-10-19T06:43:09;14.50;99.90
20081;DHT22;10200;49.232;9.222;2022-10-19T06:45:38;14.50;99.90
20081;DHT22;10200;49.232;9.222;2022-10-19T06:48:04;14.50;99.90
20081;DHT22;10200;49.232;9.222;2022-10-19T06:50:30;14.50;99.90
20081;DHT22;10200;49.232;9.222;2022-10-19T06:52:57;14.50;99.90
20081;DHT22;10200;49.232;9.222;2022-10-19T06:55:23;14.60;99.90
20081;DHT22;10200;49.232;9.222;2022-10-19T06:57:49;14.60;99.90
20081;DHT22;10200;49.232;9.222;2022-10-19T07:00:15;14.60;99.90
20081;DHT22;10200;49.232;9.222;2022-10-19T07:02:41;14.60;99.90
20081;DHT22;10200;49.232;9.222;2022-10-19T07:05:07;14.60;99.90
20081;DHT22;10200;49.232;9.222;2022-10-19T07:07:33;14.60;99.90
20081;DHT22;10200;49.232;9.222;2022-10-19T07:09:59;14.60;99.90
20081;DHT22;10200;49.232;9.222;2022-10-19T07:12:24;14.60;99.90
20081;DHT22;10200;49.232;9.222;2022-10-19T07:14:50;14.60;99.90
20081;DHT22;10200;49.232;9.222;2022-10-19T07:17:16;14.60;99.90
20081;DHT22;10200;49.232;9.222;2022-10-19T07:19:42;14.60;99.90
20081;DHT22;10200;49.232;9.222;2022-10-19T07:22:08;14.60;99.90
20081;DHT22;10200;49.232;9.222;2022-10-19T07:24:33;14.70;99.90
20081;DHT22;10200;49.232;9.222;2022-10-19T07:26:59;14.70;99.90
20081;DHT22;10200;49.232;9.222;2022-10-19T07:29:24;14.70;99.90
20081;DHT22;10200;49.232;9.222;2022-10-19T07:31:50;14.70;99.90
20081;DHT22;10200;49.232;9.222;2022-10-19T07:34:15;14.70;99.90
20081;DHT22;10200;49.232;9.222;2022-10-19T07:36:44;14.80;99.90
20081;DHT22;10200;49.232;9.222;2022-10-19T07:39:12;14.80;99.90
20081;DHT22;10200;49.232;9.222;2022-10-19T07:41:39;14.90;99.90
20081;DHT22;10200;49.232;9.222;2022-10-19T07:44:04;14.90;99.90
20081;DHT22;10200;49.232;9.222;2022-10-19T07:46:31;14.90;99.90
20081;DHT22;10200;49.232;9.222;2022-10-19T07:48:59;15.00;99.90
20081;DHT22;10200;49.232;9.222;2022-10-19T07:51:25;15.00;99.90
20081;DHT22;10200;49.232;9.222;2022-10-19T07:53:50;15.00;99.90
20081;DHT22;10200;49.232;9.222;2022-10-19T07:56:21;15.10;99.90
20081;DHT22;10200;49.232;9.222;2022-10-19T07:58:49;15.10;99.90
20081;DHT22;10200;49.232;9.222;2022-10-19T08:01:17;15.20;99.90
20081;DHT22;10200;49.232;9.222;2022-10-19T08:03:44;15.20;99.90
20081;DHT22;10200;49.232;9.222;2022-10-19T08:06:12;15.30;99.90
20081;DHT22;10200;49.232;9.222;2022-10-19T08:08:38;15.40;99.90
20081;DHT22;10200;49.232;9.222;2022-10-19T08:11:13;15.40;99.90
20081;DHT22;10200;49.232;9.222;2022-10-19T08:13:39;15.30;99.90
20081;DHT22;10200;49.232;9.222;2022-10-19T08:16:05;15.40;99.90
20081;DHT22;10200;49.232;9.222;2022-10-19T08:18:31;15.40;99.90
20081;DHT22;10200;49.232;9.222;2022-10-19T08:20:57;15.40;99.90
20081;DHT22;10200;49.232;9.222;2022-10-19T08:23:22;15.50;99.90
20081;DHT22;10200;49.232;9.222;2022-10-19T08:25:49;15.50;99.90
20081;DHT22;10200;49.232;9.222;2022-10-19T08:28:15;15.50;99.90
20081;DHT22;10200;49.232;9.222;2022-10-19T08:30:41;15.50;99.90
20081;DHT22;10200;49.232;9.222;2022-10-19T08:33:06;15.50;99.90
20081;DHT22;10200;49.232;9.222;2022-10-19T08:35:34;15.60;99.90
20081;DHT22;10200;49.232;9.222;2022-10-19T08:37:59;15.60;99.90
20081;DHT22;10200;49.232;9.222;2022-10-19T08:40:29;15.60;99.90
20081;DHT22;10200;49.232;9.222;2022-10-19T08:45:42;15.70;99.90
20081;DHT22;10200;49.232;9.222;2022-10-19T08:48:21;15.80;99.90
20081;DHT22;10200;49.232;9.222;2022-10-19T08:50:48;15.80;99.90
20081;DHT22;10200;49.232;9.222;2022-10-19T08:56:20;15.90;99.90
20081;DHT22;10200;49.232;9.222;2022-10-19T08:59:37;15.90;99.90
20081;DHT22;10200;49.232;9.222;2022-10-19T09:04:52;15.90;99.90
20081;DHT22;10200;49.232;9.222;2022-10-19T09:10:00;16.00;99.90
20081;DHT22;10200;49.232;9.222;2022-10-19T09:12:40;16.00;99.90
20081;DHT22;10200;49.232;9.222;2022-10-19T09:15:18;16.10;99.90
20081;DHT22;10200;49.232;9.222;2022-10-19T09:17:45;16.10;99.90
20081;DHT22;10200;49.232;9.222;2022-10-19T09:22:42;16.20;99.90
20081;DHT22;10200;49.232;9.222;2022-10-19T09:25:19;16.30;99.90
20081;DHT22;10200;49.232;9.222;2022-10-19T09:27:48;16.30;99.90
20081;DHT22;10200;49.232;9.222;2022-10-19T09:30:20;16.40;99.90
20081;DHT22;10200;49.232;9.222;2022-10-19T09:32:48;16.40;99.90
20081;DHT22;10200;49.232;9.222;2022-10-19T09:35:51;16.40;99.90
20081;DHT22;10200;49.232;9.222;2022-10-19T09:38:18;16.40;99.90
20081;DHT22;10200;49.232;9.222;2022-10-19T09:40:45;16.50;99.90
20081;DHT22;10200;49.232;9.222;2022-10-19T09:43:11;16.50;99.90
20081;DHT22;10200;49.232;9.222;2022-10-19T09:45:56;16.50;99.90
20081;DHT22;10200;49.232;9.222;2022-10-19T09:48:32;16.60;99.90
20081;DHT22;10200;49.232;9.222;2022-10-19T09:51:02;16.60;99.90
20081;DHT22;10200;49.232;9.222;2022-10-19T09:53:35;16.60;99.90
20081;DHT22;10200;49.232;9.222;2022-10-19T09:56:07;16.60;99.90
20081;DHT22;10200;49.232;9.222;2022-10-19T09:58:50;16.60;99.90
20081;DHT22;10200;49.232;9.222;2022-10-19T10:01:33;16.60;99.90
20081;DHT22;10200;49.232;9.222;2022-10-19T10:04:07;16.60;99.90
20081;DHT22;10200;49.232;9.222;2022-10-19T10:06:34;16.60;99.90
20081;DHT22;10200;49.232;9.222;2022-10-19T10:09:00;16.70;99.90
20081;DHT22;10200;49.232;9.222;2022-10-19T10:11:27;16.70;99.90
20081;DHT22;10200;49.232;9.222;2022-10-19T10:13:55;16.80;99.90
20081;DHT22;10200;49.232;9.222;2022-10-19T10:16:23;16.80;99.90
20081;DHT22;10200;49.232;9.222;2022-10-19T10:19:05;16.80;99.90
20081;DHT22;10200;49.232;9.222;2022-10-19T10:21:33;16.80;99.90
20081;DHT22;10200;49.232;9.222;2022-10-19T10:26:41;16.80;99.90
20081;DHT22;10200;49.232;9.222;2022-10-19T10:29:21;16.80;99.90
20081;DHT22;10200;49.232;9.222;2022-10-19T10:34:46;17.00;99.90
20081;DHT22;10200;49.232;9.222;2022-10-19T10:37:21;17.10;99.90
20081;DHT22;10200;49.232;9.222;2022-10-19T10:39:51;17.10;99.90
20081;DHT22;10200;49.232;9.222;2022-10-19T10:42:21;17.10;99.90
20081;DHT22;10200;49.232;9.222;2022-10-19T10:44:52;17.10;99.90
20081;DHT22;10200;49.232;9.222;2022-10-19T10:47:20;17.20;99.90
20081;DHT22;10200;49.232;9.222;2022-10-19T10:50:23;17.20;99.90
20081;DHT22;10200;49.232;9.222;2022-10-19T10:55:25;17.30;99.90
20081;DHT22;10200;49.232;9.222;2022-10-19T10:58:03;17.40;99.90
20081;DHT22;10200;49.232;9.222;2022-10-19T11:00:31;17.40;99.90
20081;DHT22;10200;49.232;9.222;2022-10-19T11:05:53;17.50;99.90
20081;DHT22;10200;49.232;9.222;2022-10-19T11:08:28;17.60;99.90
20081;DHT22;10200;49.232;9.222;2022-10-19T11:16:30;17.60;99.90
20081;DHT22;10200;49.232;9.222;2022-10-19T11:19:15;17.70;99.90
20081;DHT22;10200;49.232;9.222;2022-10-19T11:24:47;17.80;99.90
20081;DHT22;10200;49.232;9.222;2022-10-19T11:27:23;17.80;99.90
20081;DHT22;10200;49.232;9.222;2022-10-19T11:30:17;17.90;99.90
20081;DHT22;10200;49.232;9.222;2022-10-19T11:36:01;18.00;99.90
20081;DHT22;10200;49.232;9.222;2022-10-19T11:52:17;18.10;99.90
20081;DHT22;10200;49.232;9.222;2022-10-19T11:57:36;18.20;99.90
20081;DHT22;10200;49.232;9.222;2022-10-19T12:00:10;18.20;99.90
20081;DHT22;10200;49.232;9.222;2022-10-19T12:13:41;18.10;99.90
20081;DHT22;10200;49.232;9.222;2022-10-19T12:16:11;18.20;99.90
20081;DHT22;10200;49.232;9.222;2022-10-19T12:18:49;18.20;99.90
20081;DHT22;10200;49.232;9.222;2022-10-19T12:21:30;18.20;99.90
20081;DHT22;10200;49.232;9.222;2022-10-19T12:23:59;18.20;99.90
20081;DHT22;10200;49.232;9.222;2022-10-19T12:26:29;18.20;99.90
20081;DHT22;10200;49.232;9.222;2022-10-19T12:28:58;18.20;99.90
20081;DHT22;10200;49.232;9.222;2022-10-19T12:31:26;18.20;99.90
20081;DHT22;10200;49.232;9.222;2022-10-19T12:34:03;18.30;99.90
20081;DHT22;10200;49.232;9.222;2022-10-19T12:45:25;18.40;99.90
20081;DHT22;10200;49.232;9.222;2022-10-19T12:53:39;18.50;99.90
20081;DHT22;10200;49.232;9.222;2022-10-19T12:56:25;18.40;99.90
20081;DHT22;10200;49.232;9.222;2022-10-19T12:58:56;18.30;99.90
20081;DHT22;10200;49.232;9.222;2022-10-19T13:06:36;18.40;99.90
20081;DHT22;10200;49.232;9.222;2022-10-19T13:09:05;18.40;99.90
20081;DHT22;10200;49.232;9.222;2022-10-19T13:11:31;18.50;99.90
20081;DHT22;10200;49.232;9.222;2022-10-19T13:13:57;18.40;99.90
20081;DHT22;10200;49.232;9.222;2022-10-19T13:16:31;18.40;99.90
20081;DHT22;10200;49.232;9.222;2022-10-19T13:32:32;18.30;99.90
20081;DHT22;10200;49.232;9.222;2022-10-19T13:35:22;18.30;99.90
20081;DHT22;10200;49.232;9.222;2022-10-19T13:43:22;18.30;99.90
20081;DHT22;10200;49.232;9.222;2022-10-19T13:45:54;18.30;99.90
20081;DHT22;10200;49.232;9.222;2022-10-19T13:48:32;18.40;99.90
20081;DHT22;10200;49.232;9.222;2022-10-19T13:57:16;18.40;99.90
20081;DHT22;10200;49.232;9.222;2022-10-19T14:10:58;18.30;99.90
20081;DHT22;10200;49.232;9.222;2022-10-19T14:13:24;18.30;99.90
20081;DHT22;10200;49.232;9.222;2022-10-19T14:15:53;18.20;99.90
20081;DHT22;10200;49.232;9.222;2022-10-19T14:18:22;18.20;99.90
20081;DHT22;10200;49.232;9.222;2022-10-19T14:21:00;18.20;99.90
20081;DHT22;10200;49.232;9.222;2022-10-19T14:23:28;18.20;99.90
20081;DHT22;10200;49.232;9.222;2022-10-19T14:28:22;18.30;99.90
20081;DHT22;10200;49.232;9.222;2022-10-19T14:31:09;18.20;99.90
20081;DHT22;10200;49.232;9.222;2022-10-19T14:33:41;18.10;99.90
20081;DHT22;10200;49.232;9.222;2022-10-19T14:36:16;18.10;99.90
20081;DHT22;10200;49.232;9.222;2022-10-19T14:38:42;18.20;99.90
20081;DHT22;10200;49.232;9.222;2022-10-19T14:41:29;18.10;99.90
20081;DHT22;10200;49.232;9.222;2022-10-19T14:43:57;18.10;99.90
20081;DHT22;10200;49.232;9.222;2022-10-19T14:46:29;18.10;99.90
20081;DHT22;10200;49.232;9.222;2022-10-19T14:49:00;18.00;99.90
20081;DHT22;10200;49.232;9.222;2022-10-19T14:51:46;17.90;99.90
20081;DHT22;10200;49.232;9.222;2022-10-19T14:54:24;17.90;99.90
20081;DHT22;10200;49.232;9.222;2022-10-19T15:01:57;17.60;99.90
20081;DHT22;10200;49.232;9.222;2022-10-19T15:04:32;17.70;99.90
20081;DHT22;10200;49.232;9.222;2022-10-19T15:07:00;17.60;99.90
20081;DHT22;10200;49.232;9.222;2022-10-19T15:09:30;17.60;99.90
20081;DHT22;10200;49.232;9.222;2022-10-19T15:12:08;17.50;99.90
20081;DHT22;10200;49.232;9.222;2022-10-19T15:14:36;17.50;99.90
20081;DHT22;10200;49.232;9.222;2022-10-19T15:17:03;17.40;99.90
20081;DHT22;10200;49.232;9.222;2022-10-19T15:22:17;17.30;99.90
20081;DHT22;10200;49.232;9.222;2022-10-19T15:32:45;17.20;99.90
20081;DHT22;10200;49.232;9.222;2022-10-19T15:35:30;17.10;99.90
20081;DHT22;10200;49.232;9.222;2022-10-19T15:40:34;17.00;99.90
20081;DHT22;10200;49.232;9.222;2022-10-19T15:43:21;17.00;99.90
20081;DHT22;10200;49.232;9.222;2022-10-19T15:45:46;17.00;99.90
20081;DHT22;10200;49.232;9.222;2022-10-19T15:53:51;16.70;99.90
20081;DHT22;10200;49.232;9.222;2022-10-19T15:56:18;16.60;99.90
20081;DHT22;10200;49.232;9.222;2022-10-19T15:58:43;16.50;99.90
20081;DHT22;10200;49.232;9.222;2022-10-19T16:01:18;16.50;99.90
20081;DHT22;10200;49.232;9.222;2022-10-19T16:03:45;16.40;99.90
20081;DHT22;10200;49.232;9.222;2022-10-19T16:06:10;16.40;99.90
20081;DHT22;10200;49.232;9.222;2022-10-19T16:08:36;16.30;99.90
20081;DHT22;10200;49.232;9.222;2022-10-19T16:11:01;16.30;99.90
20081;DHT22;10200;49.232;9.222;2022-10-19T16:13:28;16.20;99.90
20081;DHT22;10200;49.232;9.222;2022-10-19T16:15:59;16.20;99.90
20081;DHT22;10200;49.232;9.222;2022-10-19T16:18:28;16.10;99.90
20081;DHT22;10200;49.232;9.222;2022-10-19T16:20:53;16.10;99.90
20081;DHT22;10200;49.232;9.222;2022-10-19T16:23:19;16.00;99.90
20081;DHT22;10200;49.232;9.222;2022-10-19T16:25:45;16.00;99.90
20081;DHT22;10200;49.232;9.222;2022-10-19T16:28:10;16.00;99.90
20081;DHT22;10200;49.232;9.222;2022-10-19T16:30:36;15.90;99.90
20081;DHT22;10200;49.232;9.222;2022-10-19T16:33:02;15.80;99.90
20081;DHT22;10200;49.232;9.222;2022-10-19T16:35:28;15.80;99.90
20081;DHT22;10200;49.232;9.222;2022-10-19T16:37:53;15.70;99.90
20081;DHT22;10200;49.232;9.222;2022-10-19T16:40:19;15.70;99.90
20081;DHT22;10200;49.232;9.222;2022-10-19T16:42:44;15.60;99.90
20081;DHT22;10200;49.232;9.222;2022-10-19T16:45:10;15.60;99.90
20081;DHT22;10200;49.232;9.222;2022-10-19T16:47:36;15.50;99.90
20081;DHT22;10200;49.232;9.222;2022-10-19T16:50:04;15.50;99.90
20081;DHT22;10200;49.232;9.222;2022-10-19T16:52:30;15.40;99.90
20081;DHT22;10200;49.232;9.222;2022-10-19T16:54:57;15.40;99.90
20081;DHT22;10200;49.232;9.222;2022-10-19T16:57:23;15.30;99.90
20081;DHT22;10200;49.232;9.222;2022-10-19T16:59:50;15.30;99.90
20081;DHT22;10200;49.232;9.222;2022-10-19T17:02:17;15.30;99.90
20081;DHT22;10200;49.232;9.222;2022-10-19T17:04:42;15.20;99.90
20081;DHT22;10200;49.232;9.222;2022-10-19T17:07:08;15.20;99.90
20081;DHT22;10200;49.232;9.222;2022-10-19T17:09:34;15.20;99.90
20081;DHT22;10200;49.232;9.222;2022-10-19T17:11:59;15.10;99.90
20081;DHT22;10200;49.232;9.222;2022-10-19T17:14:25;15.10;99.90
20081;DHT22;10200;49.232;9.222;2022-10-19T17:16:50;15.10;99.90
20081;DHT22;10200;49.232;9.222;2022-10-19T17:19:16;15.10;99.90
20081;DHT22;10200;49.232;9.222;2022-10-19T17:21:41;15.10;99.90
20081;DHT22;10200;49.232;9.222;2022-10-19T17:24:12;15.00;99.90
20081;DHT22;10200;49.232;9.222;2022-10-19T17:26:39;15.00;99.90
20081;DHT22;10200;49.232;9.222;2022-10-19T17:29:07;15.00;99.90
20081;DHT22;10200;49.232;9.222;2022-10-19T17:31:34;15.00;99.90
20081;DHT22;10200;49.232;9.222;2022-10-19T17:34:00;15.00;99.90
20081;DHT22;10200;49.232;9.222;2022-10-19T17:36:28;15.00;99.90
20081;DHT22;10200;49.232;9.222;2022-10-19T17:38:56;14.90;99.90
20081;DHT22;10200;49.232;9.222;2022-10-19T17:41:22;14.90;99.90
20081;DHT22;10200;49.232;9.222;2022-10-19T17:43:49;14.90;99.90
20081;DHT22;10200;49.232;9.222;2022-10-19T17:46:26;14.80;99.90
20081;DHT22;10200;49.232;9.222;2022-10-19T17:48:53;14.90;99.90
20081;DHT22;10200;49.232;9.222;2022-10-19T17:51:21;14.80;99.90
20081;DHT22;10200;49.232;9.222;2022-10-19T17:53:49;14.80;99.90
20081;DHT22;10200;49.232;9.222;2022-10-19T17:56:17;14.80;99.90
20081;DHT22;10200;49.232;9.222;2022-10-19T17:58:43;14.70;99.90
20081;DHT22;10200;49.232;9.222;2022-10-19T18:01:09;14.70;99.90
20081;DHT22;10200;49.232;9.222;2022-10-19T18:03:37;14.70;99.90
20081;DHT22;10200;49.232;9.222;2022-10-19T18:06:06;14.70;99.90
20081;DHT22;10200;49.232;9.222;2022-10-19T18:08:34;14.60;99.90
20081;DHT22;10200;49.232;9.222;2022-10-19T18:11:03;14.60;99.90
20081;DHT22;10200;49.232;9.222;2022-10-19T18:13:29;14.50;99.90
20081;DHT22;10200;49.232;9.222;2022-10-19T18:16:03;14.50;99.90
20081;DHT22;10200;49.232;9.222;2022-10-19T18:18:31;14.50;99.90
20081;DHT22;10200;49.232;9.222;2022-10-19T18:20:57;14.50;99.90
20081;DHT22;10200;49.232;9.222;2022-10-19T18:23:23;14.40;99.90
20081;DHT22;10200;49.232;9.222;2022-10-19T18:25:49;14.40;99.90
20081;DHT22;10200;49.232;9.222;2022-10-19T18:28:18;14.40;99.90
20081;DHT22;10200;49.232;9.222;2022-10-19T18:30:44;14.40;99.90
20081;DHT22;10200;49.232;9.222;2022-10-19T18:33:09;14.30;99.90
20081;DHT22;10200;49.232;9.222;2022-10-19T18:35:39;14.40;99.90
20081;DHT22;10200;49.232;9.222;2022-10-19T18:38:05;14.30;99.90